Terminal Aerodrome Forecast
Issued by NWS Nashville, TN

Home | Current Version | Previous Version | Text Only | Print | Product List | Glossary On
Versions: 1 2 3 4 5 6 7 8 9 10 11 12 13 14 15 16 17 18
546
FTUS44 KOHX 282328
TAFCSV
TAF
KCSV 282328Z 2900/2924 00000KT P6SM SCT050
     FM290600 00000KT 4SM BR SCT100
     FM291100 00000KT 2SM BR SCT003
     FM291400 32005KT P6SM SCT100=

USA.gov is the U.S. government's official web portal to all federal, state and local government web resources and services.